createdAt,value
2022-11-24T00:01:20.722Z,14.32
2022-11-24T00:04:00.039Z,15.25
2022-11-24T00:06:28.013Z,15.23
2022-11-24T00:08:55.331Z,16.60
2022-11-24T00:11:24.507Z,15.45
2022-11-24T00:13:51.447Z,14.20
2022-11-24T00:16:19.421Z,15.00
2022-11-24T00:18:48.257Z,16.88
2022-11-24T00:21:17.446Z,14.35
2022-11-24T00:23:45.343Z,15.73
2022-11-24T00:26:27.069Z,18.40
2022-11-24T00:28:55.848Z,18.15
2022-11-24T00:31:25.577Z,16.77
2022-11-24T00:33:55.021Z,18.88
2022-11-24T00:36:23.707Z,14.90
2022-11-24T00:39:02.081Z,17.15
2022-11-24T00:41:30.046Z,16.03
2022-11-24T00:43:57.808Z,17.65
2022-11-24T00:46:25.732Z,17.08
2022-11-24T00:48:53.862Z,17.77
2022-11-24T00:51:22.981Z,16.55
2022-11-24T00:53:50.273Z,16.38
2022-11-24T00:56:17.150Z,15.85
2022-11-24T00:58:43.984Z,16.85
2022-11-24T01:01:16.757Z,18.60
2022-11-24T01:03:43.896Z,17.40
2022-11-24T01:06:13.778Z,16.83
2022-11-24T01:08:41.314Z,18.58
2022-11-24T01:11:08.919Z,17.13
2022-11-24T01:13:35.735Z,19.92
2022-11-24T01:16:02.742Z,19.25
2022-11-24T01:18:29.583Z,17.90
2022-11-24T01:20:56.351Z,17.20
2022-11-24T01:23:23.104Z,18.98
2022-11-24T01:25:49.879Z,17.23
2022-11-24T01:28:16.569Z,17.00
2022-11-24T01:30:43.384Z,20.60
2022-11-24T01:33:10.126Z,18.02
2022-11-24T01:35:36.892Z,16.67
2022-11-24T01:38:03.597Z,16.85
2022-11-24T01:40:30.376Z,17.77
2022-11-24T01:42:57.079Z,19.20
2022-11-24T01:45:40.954Z,18.50
2022-11-24T01:48:27.290Z,17.25
2022-11-24T01:51:18.187Z,21.63
2022-11-24T01:53:50.844Z,19.38
2022-11-24T01:56:18.890Z,17.77
2022-11-24T01:58:47.583Z,16.88
2022-11-24T02:01:14.404Z,18.40
2022-11-24T02:03:44.615Z,19.20
2022-11-24T02:06:20.547Z,20.25
2022-11-24T02:08:53.037Z,18.35
2022-11-24T02:11:22.273Z,17.20
2022-11-24T02:13:51.494Z,19.90
2022-11-24T02:16:18.334Z,17.70
2022-11-24T02:18:45.328Z,18.20
2022-11-24T02:21:14.699Z,18.77
2022-11-24T02:23:48.424Z,18.48
2022-11-24T02:26:29.134Z,18.60
2022-11-24T02:28:56.348Z,18.13
2022-11-24T02:31:23.234Z,21.15
2022-11-24T02:33:50.899Z,18.52
2022-11-24T02:36:17.700Z,19.33
2022-11-24T02:38:44.470Z,19.25
2022-11-24T02:41:16.252Z,19.08
2022-11-24T02:43:47.288Z,17.52
2022-11-24T02:46:14.482Z,18.10
2022-11-24T02:48:41.473Z,19.70
2022-11-24T02:51:08.410Z,19.60
2022-11-24T02:53:35.511Z,19.83
2022-11-24T02:56:02.541Z,20.48
2022-11-24T02:58:29.566Z,19.90
2022-11-24T03:00:57.358Z,21.52
2022-11-24T03:03:25.104Z,20.58
2022-11-24T03:05:52.172Z,20.55
2022-11-24T03:08:19.683Z,19.98
2022-11-24T03:10:46.612Z,18.30
2022-11-24T03:13:13.669Z,23.25
2022-11-24T03:15:41.303Z,21.23
2022-11-24T03:18:08.363Z,18.55
2022-11-24T03:20:35.244Z,18.45
2022-11-24T03:23:02.208Z,20.90
2022-11-24T03:25:29.135Z,18.63
2022-11-24T03:27:58.133Z,19.25
2022-11-24T03:30:25.078Z,21.10
2022-11-24T03:32:55.894Z,21.23
2022-11-24T03:35:23.684Z,21.45
2022-11-24T03:37:50.709Z,21.65
2022-11-24T03:40:18.151Z,24.23
2022-11-24T03:42:45.183Z,21.43
2022-11-24T03:45:30.313Z,23.08
2022-11-24T03:47:59.129Z,22.08
2022-11-24T03:50:26.108Z,22.25
2022-11-24T03:52:53.524Z,23.80
2022-11-24T03:55:20.550Z,23.23
2022-11-24T03:57:48.005Z,22.15
2022-11-24T04:00:15.738Z,20.33
2022-11-24T04:02:42.765Z,20.80
2022-11-24T04:05:09.915Z,20.20
2022-11-24T04:07:36.991Z,24.20
2022-11-24T04:10:04.334Z,21.80
2022-11-24T04:12:46.125Z,20.60
2022-11-24T04:15:16.471Z,21.33
2022-11-24T04:17:44.242Z,20.85
2022-11-24T04:20:12.696Z,22.00
2022-11-24T04:22:40.160Z,22.15
2022-11-24T04:25:08.455Z,21.45
2022-11-24T04:27:36.990Z,21.23
2022-11-24T04:30:06.143Z,22.38
2022-11-24T04:32:33.037Z,24.30
2022-11-24T04:35:00.007Z,21.60
2022-11-24T04:37:27.009Z,24.13
2022-11-24T04:39:55.200Z,22.75
2022-11-24T04:42:22.205Z,23.52
2022-11-24T04:44:49.164Z,22.45
2022-11-24T04:47:19.800Z,20.98
2022-11-24T04:49:49.955Z,23.25
2022-11-24T04:52:19.567Z,22.52
2022-11-24T04:54:47.276Z,27.92
2022-11-24T04:57:23.140Z,22.33
2022-11-24T04:59:51.215Z,24.07
2022-11-24T05:02:19.225Z,23.27
2022-11-24T05:04:47.012Z,23.10
2022-11-24T05:07:18.791Z,24.50
2022-11-24T05:10:05.860Z,24.92
2022-11-24T05:12:33.062Z,21.85
2022-11-24T05:15:01.531Z,22.20
2022-11-24T05:17:30.209Z,22.05
2022-11-24T05:19:57.695Z,21.50
2022-11-24T05:22:25.335Z,21.83
2022-11-24T05:24:52.318Z,25.30
2022-11-24T05:27:19.303Z,24.92
2022-11-24T05:29:46.309Z,20.40
2022-11-24T05:32:13.491Z,22.90
2022-11-24T05:34:40.483Z,23.60
2022-11-24T05:37:08.341Z,19.63
2022-11-24T05:39:36.642Z,20.27
2022-11-24T05:42:25.694Z,21.75
2022-11-24T05:44:53.204Z,22.15
2022-11-24T05:47:21.075Z,26.35
2022-11-24T05:49:47.976Z,22.67
2022-11-24T05:52:15.624Z,23.08
2022-11-24T05:54:42.550Z,21.48
2022-11-24T05:57:09.558Z,23.92
2022-11-24T05:59:36.588Z,22.83
2022-11-24T06:02:03.669Z,23.55
2022-11-24T06:04:31.407Z,23.83
2022-11-24T06:06:58.429Z,23.60
2022-11-24T06:09:25.407Z,24.73
2022-11-24T06:11:52.396Z,22.77
2022-11-24T06:14:19.266Z,21.90
2022-11-24T06:16:46.311Z,22.02
2022-11-24T06:19:13.440Z,21.15
2022-11-24T06:21:40.412Z,23.25
2022-11-24T06:24:07.671Z,23.15
2022-11-24T06:26:34.696Z,24.77
2022-11-24T06:29:01.668Z,23.30
2022-11-24T06:31:28.813Z,26.05
2022-11-24T06:33:55.816Z,24.95
2022-11-24T06:36:22.722Z,26.35
2022-11-24T06:38:49.708Z,23.55
2022-11-24T06:41:16.816Z,21.23
2022-11-24T06:43:44.632Z,20.85
2022-11-24T06:46:11.983Z,22.63
2022-11-24T06:48:39.344Z,23.15
2022-11-24T06:51:08.632Z,23.52
2022-11-24T06:53:38.074Z,26.27
2022-11-24T06:56:15.717Z,22.85
2022-11-24T06:58:48.901Z,22.35
2022-11-24T07:01:24.727Z,22.33
2022-11-24T07:03:52.766Z,24.88
2022-11-24T07:06:20.860Z,22.58
2022-11-24T07:08:48.101Z,21.77
2022-11-24T07:11:17.853Z,22.40
2022-11-24T07:13:45.749Z,21.02
2022-11-24T07:16:17.155Z,24.08
2022-11-24T07:18:45.367Z,21.30
2022-11-24T07:21:12.976Z,19.55
2022-11-24T07:23:40.368Z,20.65
2022-11-24T07:26:08.877Z,21.52
2022-11-24T07:28:37.070Z,21.88
2022-11-24T07:31:12.387Z,19.58
2022-11-24T07:33:39.873Z,19.97
2022-11-24T07:36:08.231Z,17.73
2022-11-24T07:38:35.845Z,20.05
2022-11-24T07:41:08.236Z,21.20
2022-11-24T07:43:37.087Z,19.90
2022-11-24T07:46:05.571Z,17.50
2022-11-24T07:48:33.412Z,19.38
2022-11-24T07:51:01.765Z,17.52
2022-11-24T07:53:29.352Z,17.95
2022-11-24T07:56:00.293Z,19.02
2022-11-24T07:58:32.638Z,18.90
2022-11-24T08:01:00.567Z,20.50
2022-11-24T08:03:28.020Z,20.15
2022-11-24T08:06:23.170Z,20.25
2022-11-24T08:08:47.616Z,19.17
2022-11-24T08:11:16.749Z,19.63
2022-11-24T08:13:43.967Z,18.75
2022-11-24T08:16:13.249Z,16.92
2022-11-24T08:18:40.680Z,17.77
2022-11-24T08:21:08.456Z,18.85
2022-11-24T08:23:35.556Z,16.02
2022-11-24T08:26:13.749Z,17.20
2022-11-24T08:28:40.893Z,18.95
2022-11-24T08:31:14.214Z,16.23
2022-11-24T08:33:41.624Z,17.30
2022-11-24T08:36:14.980Z,17.60
2022-11-24T08:38:42.052Z,18.52
2022-11-24T08:41:13.296Z,18.38
2022-11-24T08:43:41.020Z,16.40
2022-11-24T08:46:13.719Z,16.40
2022-11-24T08:48:41.610Z,18.17
2022-11-24T08:51:12.439Z,17.98
2022-11-24T08:53:39.813Z,18.13
2022-11-24T08:56:07.677Z,17.40
2022-11-24T08:58:35.137Z,21.23
2022-11-24T09:01:08.278Z,19.67
2022-11-24T09:03:35.554Z,17.90
2022-11-24T09:06:03.836Z,18.70
2022-11-24T09:08:31.652Z,18.80
2022-11-24T09:11:03.711Z,16.70
2022-11-24T09:13:30.805Z,21.60
2022-11-24T09:16:02.330Z,17.10
2022-11-24T09:18:30.516Z,17.38
2022-11-24T09:21:12.964Z,16.95
2022-11-24T09:23:40.788Z,18.75
2022-11-24T09:26:17.473Z,19.15
2022-11-24T09:28:44.812Z,18.45
2022-11-24T09:31:14.485Z,17.88
2022-11-24T09:33:42.440Z,17.90
2022-11-24T09:36:09.966Z,17.52
2022-11-24T09:38:36.997Z,16.63
2022-11-24T09:41:19.176Z,17.60
2022-11-24T09:44:06.315Z,19.27
2022-11-24T09:46:36.433Z,17.25
2022-11-24T09:49:05.771Z,16.48
2022-11-24T09:51:34.123Z,16.30
2022-11-24T09:54:13.153Z,20.02
2022-11-24T09:56:42.883Z,20.63
2022-11-24T09:59:18.782Z,20.60
2022-11-24T10:01:47.855Z,19.10
2022-11-24T10:04:39.273Z,17.08
2022-11-24T10:07:15.292Z,18.50
2022-11-24T10:10:25.242Z,19.53
2022-11-24T10:13:13.361Z,19.05
2022-11-24T10:16:04.748Z,17.80
2022-11-24T10:18:45.328Z,18.15
2022-11-24T10:21:21.069Z,17.83
2022-11-24T10:24:06.745Z,17.88
2022-11-24T10:26:42.837Z,20.42
2022-11-24T10:29:23.213Z,17.63
2022-11-24T10:31:57.832Z,18.83
2022-11-24T10:34:44.273Z,16.70
2022-11-24T10:37:11.169Z,17.45
2022-11-24T10:40:00.421Z,17.37
2022-11-24T10:42:33.456Z,15.90
2022-11-24T10:45:12.488Z,18.40
2022-11-24T10:47:40.469Z,17.50
2022-11-24T10:50:28.748Z,18.45
2022-11-24T10:53:11.202Z,16.60
2022-11-24T10:55:56.606Z,16.35
2022-11-24T10:58:38.071Z,17.92
2022-11-24T11:01:14.691Z,19.15
2022-11-24T11:03:50.977Z,16.55
2022-11-24T11:06:29.535Z,18.30
2022-11-24T11:09:08.812Z,16.75
2022-11-24T11:11:38.729Z,17.10
2022-11-24T11:14:07.576Z,19.17
2022-11-24T11:16:42.104Z,17.33
2022-11-24T11:19:47.758Z,16.58
2022-11-24T11:22:20.192Z,15.73
2022-11-24T11:24:48.220Z,17.05
2022-11-24T11:27:24.672Z,17.42
2022-11-24T11:35:47.790Z,16.13
2022-11-24T11:38:15.080Z,18.50
2022-11-24T11:40:43.831Z,17.10
2022-11-24T11:43:19.532Z,16.70
2022-11-24T11:45:49.261Z,15.63
2022-11-24T11:48:28.063Z,16.95
2022-11-24T11:51:25.247Z,18.88
2022-11-24T11:54:09.222Z,15.02
2022-11-24T11:56:45.261Z,15.60
2022-11-24T11:59:18.190Z,17.33
2022-11-24T12:02:29.660Z,16.47
2022-11-24T12:05:27.737Z,17.80
2022-11-24T12:08:10.060Z,16.30
2022-11-24T12:10:41.584Z,18.27
2022-11-24T12:13:11.617Z,16.40
2022-11-24T12:15:41.626Z,16.58
2022-11-24T12:18:57.444Z,16.80
2022-11-24T12:21:39.020Z,15.45
2022-11-24T12:24:08.998Z,15.68
2022-11-24T12:26:45.280Z,17.23
2022-11-24T12:29:28.103Z,17.03
2022-11-24T12:32:17.119Z,16.10
2022-11-24T12:35:11.599Z,17.83
2022-11-24T12:38:04.240Z,16.03
2022-11-24T12:40:47.302Z,16.63
2022-11-24T12:43:37.132Z,16.10
2022-11-24T12:46:21.077Z,16.48
2022-11-24T12:49:05.153Z,15.85
2022-11-24T12:51:42.850Z,17.65
2022-11-24T12:54:21.365Z,15.60
2022-11-24T12:56:59.813Z,15.57
2022-11-24T12:59:45.407Z,16.10
2022-11-24T13:02:36.457Z,15.25
2022-11-24T13:05:06.967Z,15.00
2022-11-24T13:07:45.188Z,17.02
2022-11-24T13:10:53.539Z,16.13
2022-11-24T13:13:15.344Z,15.52
2022-11-24T13:16:34.659Z,15.88
2022-11-24T13:18:47.818Z,16.13
2022-11-24T13:21:32.960Z,15.43
2022-11-24T13:24:06.163Z,17.20
2022-11-24T13:26:41.505Z,16.50
2022-11-24T13:29:27.916Z,16.35
2022-11-24T13:32:17.608Z,16.02
2022-11-24T13:34:49.637Z,18.83
2022-11-24T13:37:32.003Z,16.92
2022-11-24T13:40:12.069Z,14.98
2022-11-24T13:42:57.751Z,18.03
2022-11-24T13:45:40.288Z,16.85
2022-11-24T13:48:20.206Z,14.90
2022-11-24T13:50:50.678Z,17.10
2022-11-24T13:53:36.490Z,15.80
2022-11-24T13:56:07.297Z,15.98
2022-11-24T13:58:49.060Z,16.40
2022-11-24T14:01:23.878Z,18.20
2022-11-24T14:04:35.254Z,14.70
2022-11-24T14:07:14.278Z,16.60
2022-11-24T14:09:44.845Z,16.65
2022-11-24T14:12:17.339Z,14.60
2022-11-24T14:14:46.244Z,16.20
2022-11-24T14:17:21.111Z,16.80
2022-11-24T14:19:50.696Z,15.85
2022-11-24T14:22:26.954Z,18.15
2022-11-24T14:24:59.307Z,16.08
2022-11-24T14:27:32.524Z,14.48
2022-11-24T14:30:09.925Z,13.85
2022-11-24T14:32:37.930Z,16.63
2022-11-24T14:35:25.688Z,15.55
2022-11-24T14:37:52.981Z,15.05
2022-11-24T14:40:40.240Z,15.63
2022-11-24T14:43:32.482Z,15.48
2022-11-24T14:46:17.974Z,16.75
2022-11-24T14:48:50.536Z,18.60
2022-11-24T14:51:28.160Z,17.73
2022-11-24T14:54:21.211Z,15.30
2022-11-24T14:56:59.226Z,16.48
2022-11-24T14:59:28.787Z,15.40
2022-11-24T15:01:57.180Z,17.20
2022-11-24T15:04:54.349Z,15.45
2022-11-24T15:07:19.805Z,15.93
2022-11-24T15:09:51.792Z,17.05
2022-11-24T15:12:31.147Z,17.80
2022-11-24T15:15:14.836Z,16.40
2022-11-24T15:17:55.148Z,15.80
2022-11-24T15:20:27.091Z,16.43
2022-11-24T15:23:20.179Z,16.30
2022-11-24T15:25:47.535Z,17.33
2022-11-24T15:28:14.520Z,19.63
2022-11-24T15:30:41.609Z,17.30
2022-11-24T15:33:14.652Z,15.95
2022-11-24T15:35:41.793Z,16.55
2022-11-24T15:38:08.863Z,17.35
2022-11-24T15:40:37.403Z,16.92
2022-11-24T15:43:23.225Z,15.82
2022-11-24T15:45:50.156Z,16.35
2022-11-24T15:48:18.360Z,16.50
2022-11-24T15:50:46.850Z,14.63
2022-11-24T15:53:30.417Z,14.65
2022-11-24T15:55:57.738Z,14.88
2022-11-24T15:58:24.858Z,16.05
2022-11-24T16:00:53.603Z,17.53
2022-11-24T16:06:23.660Z,16.08
2022-11-24T16:08:52.411Z,20.50
2022-11-24T16:11:19.565Z,17.37
2022-11-24T16:13:51.828Z,18.35
2022-11-24T16:16:20.817Z,17.35
2022-11-24T16:18:47.886Z,17.75
2022-11-24T16:21:14.944Z,17.97
2022-11-24T16:23:42.035Z,17.13
2022-11-24T16:26:10.707Z,17.27
2022-11-24T16:28:37.676Z,16.30
2022-11-24T16:31:04.710Z,17.88
2022-11-24T16:33:31.843Z,16.20
2022-11-24T16:35:58.823Z,17.92
2022-11-24T16:38:25.873Z,17.77
2022-11-24T16:40:56.858Z,16.00
2022-11-24T16:43:24.729Z,17.67
2022-11-24T16:46:15.676Z,17.00
2022-11-24T16:48:43.918Z,15.65
2022-11-24T16:51:11.814Z,17.13
2022-11-24T16:53:39.061Z,17.50
2022-11-24T16:56:06.834Z,16.80
2022-11-24T16:58:34.067Z,15.95
2022-11-24T17:01:12.432Z,14.23
2022-11-24T17:03:41.140Z,16.45
2022-11-24T17:06:15.743Z,16.42
2022-11-24T17:08:44.862Z,16.60
2022-11-24T17:11:17.215Z,18.48
2022-11-24T17:13:45.846Z,15.17
2022-11-24T17:16:14.877Z,16.08
2022-11-24T17:18:42.428Z,16.60
2022-11-24T17:21:29.952Z,15.43
2022-11-24T17:23:59.172Z,14.90
2022-11-24T17:26:27.595Z,14.93
2022-11-24T17:28:56.050Z,14.00
2022-11-24T17:31:24.497Z,15.75
2022-11-24T17:33:54.156Z,14.98
2022-11-24T17:36:21.577Z,14.75
2022-11-24T17:38:49.616Z,14.63
2022-11-24T17:41:18.112Z,14.75
2022-11-24T17:43:55.957Z,15.02
2022-11-24T17:46:27.805Z,15.63
2022-11-24T17:48:57.356Z,15.98
2022-11-24T17:51:25.752Z,14.98
2022-11-24T17:53:54.195Z,18.20
2022-11-24T17:56:23.733Z,17.70
2022-11-24T17:58:55.719Z,15.13
2022-11-24T18:01:23.944Z,15.27
2022-11-24T18:03:53.610Z,15.88
2022-11-24T18:06:25.003Z,14.68
2022-11-24T18:08:54.015Z,14.77
2022-11-24T18:11:30.654Z,13.93
2022-11-24T18:14:02.687Z,14.13
2022-11-24T18:16:34.514Z,14.57
2022-11-24T18:19:08.734Z,14.37
2022-11-24T18:21:44.769Z,19.55
2022-11-24T18:24:12.993Z,15.35
2022-11-24T18:26:41.729Z,18.27
2022-11-24T18:29:09.483Z,15.68
2022-11-24T18:31:37.595Z,17.20
2022-11-24T18:34:05.968Z,17.88
2022-11-24T18:36:34.390Z,15.82
2022-11-24T18:39:03.243Z,16.75
2022-11-24T18:41:30.193Z,20.25
2022-11-24T18:43:57.295Z,20.90
2022-11-24T18:46:24.371Z,17.70
2022-11-24T18:48:53.229Z,16.80
2022-11-24T18:51:20.388Z,16.40
2022-11-24T18:53:54.578Z,17.13
2022-11-24T18:56:21.807Z,15.90
2022-11-24T18:58:53.487Z,15.60
2022-11-24T19:01:23.577Z,14.77
2022-11-24T19:03:53.656Z,15.85
2022-11-24T19:06:28.841Z,16.80
2022-11-24T19:08:56.319Z,17.02
2022-11-24T19:11:28.443Z,15.50
2022-11-24T19:13:56.604Z,16.90
2022-11-24T19:16:24.230Z,15.70
2022-11-24T19:18:54.317Z,16.23
2022-11-24T19:21:22.231Z,16.38
2022-11-24T19:23:50.096Z,17.25
2022-11-24T19:26:17.389Z,15.90
2022-11-24T19:28:44.572Z,16.13
2022-11-24T19:31:13.566Z,15.65
2022-11-24T19:33:41.720Z,15.15
2022-11-24T19:36:16.551Z,15.35
2022-11-24T19:38:50.006Z,16.40
2022-11-24T19:41:19.476Z,18.00
2022-11-24T19:43:47.304Z,15.73
2022-11-24T19:46:17.096Z,16.40
2022-11-24T19:48:46.635Z,16.30
2022-11-24T19:51:16.551Z,17.80
2022-11-24T19:53:43.777Z,16.30
2022-11-24T19:56:13.559Z,17.02
2022-11-24T19:58:41.568Z,17.42
2022-11-24T20:01:12.767Z,17.73
2022-11-24T20:03:40.683Z,20.70
2022-11-24T20:06:09.727Z,16.98
2022-11-24T20:08:38.555Z,22.30
2022-11-24T20:11:11.513Z,19.50
2022-11-24T20:13:39.953Z,24.83
2022-11-24T20:16:10.314Z,20.10
2022-11-24T20:18:43.929Z,18.73
2022-11-24T20:21:16.752Z,15.73
2022-11-24T20:23:46.554Z,17.55
2022-11-24T20:26:19.753Z,15.00
2022-11-24T20:28:47.453Z,18.70
2022-11-24T20:31:17.450Z,17.98
2022-11-24T20:33:45.073Z,20.15
2022-11-24T20:36:14.754Z,16.70
2022-11-24T20:38:43.447Z,21.90
2022-11-24T20:41:32.352Z,19.70
2022-11-24T20:44:01.691Z,14.63
2022-11-24T20:46:34.145Z,15.88
2022-11-24T20:49:03.445Z,16.05
2022-11-24T20:51:33.918Z,23.55
2022-11-24T20:54:04.402Z,45.50
2022-11-24T20:56:34.351Z,17.55
2022-11-24T20:59:02.550Z,13.68
2022-11-24T21:01:35.320Z,13.60
2022-11-24T21:04:03.384Z,14.37
2022-11-24T21:06:30.842Z,14.30
2022-11-24T21:09:03.445Z,14.32
2022-11-24T21:11:32.331Z,14.32
2022-11-24T21:14:00.315Z,13.80
2022-11-24T21:16:32.686Z,13.70
2022-11-24T21:19:02.210Z,14.35
2022-11-24T21:21:34.176Z,13.53
2022-11-24T21:24:15.003Z,12.95
2022-11-24T21:26:43.307Z,13.10
2022-11-24T21:29:13.932Z,13.70
2022-11-24T21:31:41.745Z,13.75
2022-11-24T21:34:09.594Z,14.02
2022-11-24T21:36:40.674Z,14.15
2022-11-24T21:39:10.380Z,13.60
2022-11-24T21:41:37.496Z,16.48
2022-11-24T21:44:04.712Z,13.82
2022-11-24T21:46:39.043Z,16.10
2022-11-24T21:49:07.712Z,14.95
2022-11-24T21:51:34.807Z,14.90
2022-11-24T21:54:01.907Z,14.10
2022-11-24T21:56:29.048Z,14.38
2022-11-24T21:58:57.953Z,16.05
2022-11-24T22:01:30.318Z,14.90
2022-11-24T22:03:57.379Z,15.50
2022-11-24T22:06:24.600Z,14.27
2022-11-24T22:08:51.660Z,15.25
2022-11-24T22:11:23.799Z,14.63
2022-11-24T22:13:51.736Z,14.55
2022-11-24T22:16:21.278Z,13.80
2022-11-24T22:18:48.656Z,16.40
2022-11-24T22:21:18.254Z,15.70
2022-11-24T22:23:45.347Z,16.90
2022-11-24T22:26:18.284Z,15.48
2022-11-24T22:28:45.916Z,16.27
2022-11-24T22:31:27.486Z,15.80
2022-11-24T22:33:55.885Z,16.70
2022-11-24T22:36:25.030Z,17.20
2022-11-24T22:39:03.298Z,17.77
2022-11-24T22:41:32.396Z,15.10
2022-11-24T22:43:59.811Z,14.35
2022-11-24T22:46:29.894Z,14.60
2022-11-24T22:48:59.795Z,14.30
2022-11-24T22:51:29.247Z,14.38
2022-11-24T22:53:58.057Z,15.20
2022-11-24T22:56:25.329Z,14.43
2022-11-24T22:58:52.425Z,14.02
2022-11-24T23:01:21.632Z,14.83
2022-11-24T23:03:49.134Z,15.80
2022-11-24T23:06:30.264Z,15.52
2022-11-24T23:08:58.816Z,14.18
2022-11-24T23:11:33.839Z,15.30
2022-11-24T23:14:05.796Z,15.23
2022-11-24T23:16:32.884Z,15.55
2022-11-24T23:18:59.988Z,16.17
2022-11-24T23:21:29.285Z,14.73
2022-11-24T23:23:58.095Z,16.25
2022-11-24T23:26:31.115Z,15.20
2022-11-24T23:28:58.307Z,16.20
2022-11-24T23:31:29.693Z,15.73
2022-11-24T23:34:01.553Z,15.55
2022-11-24T23:36:29.594Z,15.50
2022-11-24T23:39:01.632Z,15.90
2022-11-24T23:41:30.308Z,14.95
2022-11-24T23:43:57.329Z,14.80
2022-11-24T23:46:26.104Z,15.25
2022-11-24T23:48:54.754Z,17.30
2022-11-24T23:51:24.697Z,16.53
2022-11-24T23:53:52.424Z,17.50
2022-11-24T23:56:24.896Z,15.82
2022-11-24T23:58:52.084Z,14.15
